Time;durP1;ratioP1;P1;durP2;ratioP2;P2;SDS_P1;SDS_P2;PMS_P1;PMS_P2;Temp;Humidity;BMP_temperature;BMP_pressure;BME280_temperature;BME280_humidity;BME280_pressure;Samples;Min_cycle;Max_cycle;Signal;HPM_P1;HPM_P2
2023/07/01 03:01:44;;;;;;;83.70;79.07;;;13.80;99.90;;;;;;5258475;23;20263;-75
2023/07/01 03:04:11;;;;;;;45.67;42.53;;;13.70;99.90;;;;;;4863378;29;20653;-75
2023/07/01 03:06:37;;;;;;;28.37;26.27;;;13.70;99.90;;;;;;4871818;29;20353;-75
2023/07/01 03:09:07;;;;;;;84.90;79.90;;;13.70;99.90;;;;;;4873672;29;20275;-75
2023/07/01 03:11:36;;;;;;;67.80;63.20;;;13.70;99.90;;;;;;4860098;29;20220;-75
2023/07/01 03:14:02;;;;;;;146.10;137.23;;;13.70;99.90;;;;;;4844777;29;20203;-77
2023/07/01 03:16:31;;;;;;;43.57;40.90;;;13.70;99.90;;;;;;4841832;29;20189;-77
2023/07/01 03:19:00;;;;;;;170.33;161.80;;;13.60;99.90;;;;;;4859387;29;20185;-77
2023/07/01 03:21:27;;;;;;;89.77;85.10;;;13.50;99.90;;;;;;4844992;29;20258;-77
2023/07/01 03:23:53;;;;;;;152.20;144.07;;;13.50;99.90;;;;;;4861658;29;20197;-77
2023/07/01 03:26:18;;;;;;;137.67;130.27;;;13.40;99.90;;;;;;4844727;29;20594;-77
2023/07/01 03:28:47;;;;;;;125.40;118.27;;;13.40;99.90;;;;;;4839670;29;20185;-77
2023/07/01 03:31:13;;;;;;;94.43;89.10;;;13.40;99.90;;;;;;4855615;29;20581;-77
2023/07/01 03:33:38;;;;;;;120.00;112.63;;;13.40;99.90;;;;;;4831352;29;20197;-77
2023/07/01 03:36:04;;;;;;;106.57;100.90;;;13.40;99.90;;;;;;4858911;29;20204;-78
2023/07/01 03:38:30;;;;;;;174.20;165.20;;;13.30;99.90;;;;;;4844375;29;20224;-77
2023/07/01 03:40:56;;;;;;;98.87;93.43;;;13.30;99.90;;;;;;4860881;29;20244;-77
2023/07/01 03:43:22;;;;;;;101.20;95.83;;;13.30;99.90;;;;;;4836898;29;20192;-77
2023/07/01 03:45:47;;;;;;;91.43;86.83;;;13.30;99.90;;;;;;4860532;29;20212;-77
2023/07/01 03:48:13;;;;;;;74.17;68.93;;;13.30;99.90;;;;;;4843405;29;20199;-77
2023/07/01 03:50:40;;;;;;;58.77;55.17;;;13.30;99.90;;;;;;4860346;29;20217;-77
2023/07/01 03:53:06;;;;;;;55.77;52.30;;;13.40;99.90;;;;;;4860211;29;20268;-77
2023/07/01 03:55:32;;;;;;;61.07;57.30;;;13.30;99.90;;;;;;4843378;29;20226;-77
2023/07/01 03:57:57;;;;;;;23.77;21.97;;;13.30;99.90;;;;;;4851369;29;20721;-77
2023/07/01 04:00:23;;;;;;;53.27;50.17;;;13.40;99.90;;;;;;4859694;29;20261;-77
2023/07/01 04:02:51;;;;;;;48.03;44.73;;;13.40;99.90;;;;;;4852184;29;20224;-77
2023/07/01 04:05:18;;;;;;;163.07;154.57;;;13.40;99.90;;;;;;4843525;29;20199;-77
2023/07/01 04:07:46;;;;;;;192.77;182.70;;;13.40;99.90;;;;;;4859491;29;20589;-77
2023/07/01 04:10:12;;;;;;;141.47;133.70;;;13.50;99.90;;;;;;4857167;29;20672;-77
2023/07/01 04:12:39;;;;;;;54.43;50.87;;;13.50;99.90;;;;;;4855838;29;20275;-77
2023/07/01 04:15:09;;;;;;;123.60;116.17;;;13.50;99.90;;;;;;4858571;29;20229;-77
2023/07/01 04:17:44;;;;;;;97.23;91.93;;;13.60;99.90;;;;;;4846208;29;20587;-77
2023/07/01 04:20:13;;;;;;;131.97;124.47;;;13.60;99.90;;;;;;4858572;29;20188;-77
2023/07/01 04:22:39;;;;;;;172.50;163.17;;;13.70;99.90;;;;;;4860103;29;20579;-67
2023/07/01 04:25:06;;;;;;;18.30;16.97;;;13.80;99.90;;;;;;4853850;29;20196;-66
2023/07/01 04:27:32;;;;;;;41.83;39.50;;;13.80;99.90;;;;;;4858785;29;20597;-65
2023/07/01 04:29:58;;;;;;;73.27;69.13;;;13.90;99.90;;;;;;4859345;29;20227;-66
2023/07/01 04:32:24;;;;;;;27.57;25.63;;;13.90;99.90;;;;;;4859151;29;20244;-67
2023/07/01 04:34:50;;;;;;;45.57;43.00;;;14.00;99.90;;;;;;4859371;29;20189;-66
2023/07/01 04:37:15;;;;;;;42.27;39.67;;;14.10;99.90;;;;;;4858894;29;20225;-67
2023/07/01 04:39:41;;;;;;;20.17;18.70;;;14.10;99.90;;;;;;4851639;29;20212;-66
2023/07/01 04:42:07;;;;;;;9.40;8.30;;;14.10;99.90;;;;;;4859044;29;20326;-67
2023/07/01 04:44:33;;;;;;;46.53;43.60;;;14.20;99.90;;;;;;4859033;29;20249;-67
2023/07/01 04:46:59;;;;;;;83.00;78.33;;;14.30;99.90;;;;;;4858698;29;20251;-66
2023/07/01 04:49:25;;;;;;;94.60;89.17;;;14.40;99.90;;;;;;4858850;29;20607;-66
2023/07/01 04:51:52;;;;;;;172.83;163.67;;;14.60;99.90;;;;;;4858802;29;20213;-66
2023/07/01 04:54:18;;;;;;;51.10;48.10;;;14.70;99.90;;;;;;4856764;29;20208;-66
2023/07/01 04:56:44;;;;;;;17.93;16.27;;;14.80;99.90;;;;;;4858704;29;20580;-66
2023/07/01 04:59:09;;;;;;;54.57;51.17;;;15.00;99.90;;;;;;4858350;29;20204;-67
2023/07/01 05:01:35;;;;;;;28.77;26.37;;;15.10;99.90;;;;;;4858247;29;20232;-65
2023/07/01 05:04:01;;;;;;;45.03;42.50;;;15.30;99.90;;;;;;4859031;29;20212;-66
2023/07/01 05:06:27;;;;;;;73.23;69.00;;;15.50;99.90;;;;;;4858041;29;20209;-65
2023/07/01 05:08:53;;;;;;;49.00;46.00;;;15.90;99.90;;;;;;4854196;29;20661;-66
2023/07/01 05:11:19;;;;;;;51.57;48.33;;;16.40;99.90;;;;;;4858695;29;20243;-66
2023/07/01 05:13:46;;;;;;;52.97;49.67;;;17.20;99.90;;;;;;4858591;29;20193;-66
2023/07/01 05:16:11;;;;;;;48.30;45.33;;;17.80;99.90;;;;;;4841911;29;20196;-66
2023/07/01 05:18:37;;;;;;;40.87;38.13;;;18.40;99.90;;;;;;4857234;29;20197;-66
2023/07/01 05:21:03;;;;;;;32.87;30.53;;;19.10;99.90;;;;;;4859021;29;20216;-67
2023/07/01 05:23:29;;;;;;;13.13;12.07;;;19.70;99.90;;;;;;4854853;29;20208;-67
2023/07/01 05:25:55;;;;;;;19.70;18.55;;;20.20;99.90;;;;;;4855147;29;20217;-66
2023/07/01 05:28:20;;;;;;;48.95;46.20;;;20.80;99.90;;;;;;4858331;29;20731;-66
2023/07/01 05:30:46;;;;;;;39.97;37.17;;;21.20;99.90;;;;;;4858708;29;20205;-67
2023/07/01 05:33:12;;;;;;;23.10;21.85;;;21.50;99.90;;;;;;4858682;29;20253;-65
2023/07/01 05:35:38;;;;;;;36.45;34.45;;;21.90;99.90;;;;;;4857548;29;20634;-66
2023/07/01 05:38:08;;;;;;;31.60;29.80;;;22.20;99.90;;;;;;4858001;29;20665;-66
2023/07/01 05:40:34;;;;;;;34.28;32.50;;;22.50;99.90;;;;;;4858481;29;20209;-66
2023/07/01 05:43:00;;;;;;;33.78;31.73;;;22.70;99.90;;;;;;4858318;29;20196;-66
2023/07/01 05:45:26;;;;;;;20.67;19.23;;;23.00;99.90;;;;;;4858357;29;20193;-66
2023/07/01 05:47:51;;;;;;;11.50;10.90;;;23.20;99.90;;;;;;4858711;29;20224;-66
2023/07/01 05:50:17;;;;;;;12.85;12.00;;;23.20;99.90;;;;;;4857437;29;20190;-66
2023/07/01 05:52:43;;;;;;;10.18;9.27;;;22.80;99.90;;;;;;4850099;29;20192;-65
2023/07/01 05:55:09;;;;;;;9.30;8.13;;;23.20;99.90;;;;;;4856368;29;20635;-65
2023/07/01 05:57:34;;;;;;;14.95;13.90;;;23.60;99.90;;;;;;4857944;29;20204;-65
2023/07/01 06:00:03;;;;;;;13.60;12.77;;;23.80;99.90;;;;;;4858484;29;20211;-67
2023/07/01 06:02:29;;;;;;;11.55;10.40;;;24.00;99.90;;;;;;4847631;29;20647;-64
2023/07/01 06:04:55;;;;;;;14.88;14.00;;;24.00;99.90;;;;;;4854475;29;20197;-66
2023/07/01 06:07:22;;;;;;;16.25;15.43;;;23.80;99.90;;;;;;4847598;29;20270;-64
2023/07/01 06:09:48;;;;;;;15.15;14.30;;;23.70;99.90;;;;;;4853381;29;20208;-67
2023/07/01 06:12:14;;;;;;;12.48;11.45;;;24.10;99.90;;;;;;4857816;29;20264;-68
2023/07/01 06:14:40;;;;;;;12.45;11.70;;;24.00;99.90;;;;;;4857995;29;20279;-66
2023/07/01 06:17:06;;;;;;;12.90;12.10;;;23.50;99.90;;;;;;4858070;29;20193;-66
2023/07/01 06:19:32;;;;;;;12.35;11.27;;;23.50;99.90;;;;;;4855208;29;20197;-67
2023/07/01 06:21:58;;;;;;;9.30;8.65;;;23.90;99.90;;;;;;4861720;29;20228;-66
2023/07/01 06:24:24;;;;;;;11.65;10.25;;;24.00;99.90;;;;;;4859941;29;20776;-66
2023/07/01 06:26:50;;;;;;;13.95;12.95;;;24.50;99.90;;;;;;4861544;29;20237;-67
2023/07/01 06:29:16;;;;;;;8.45;7.65;;;24.60;99.90;;;;;;4855569;29;20289;-67
2023/07/01 06:31:42;;;;;;;7.10;6.60;;;24.70;99.90;;;;;;4861667;29;20213;-67
2023/07/01 06:34:16;;;;;;;6.78;6.32;;;24.80;99.90;;;;;;4868315;29;20233;-66
2023/07/01 06:36:42;;;;;;;8.88;8.13;;;25.30;99.90;;;;;;4861690;29;20203;-68
2023/07/01 06:39:08;;;;;;;23.35;21.98;;;25.50;99.90;;;;;;4856258;29;20201;-68
2023/07/01 06:41:34;;;;;;;38.25;36.35;;;25.80;99.90;;;;;;4841833;29;20217;-67
2023/07/01 06:44:00;;;;;;;46.47;43.33;;;26.30;99.90;;;;;;4827339;29;20792;-68
2023/07/01 06:46:26;;;;;;;43.67;41.00;;;26.40;99.90;;;;;;4852876;29;20307;-67
2023/07/01 06:48:52;;;;;;;15.45;14.38;;;26.30;99.90;;;;;;4861083;29;20193;-67
2023/07/01 06:51:18;;;;;;;33.33;31.65;;;26.20;99.90;;;;;;4860070;29;20592;-66
2023/07/01 06:53:44;;;;;;;34.65;32.85;;;26.20;99.90;;;;;;4861284;29;20188;-67
2023/07/01 06:56:10;;;;;;;24.30;22.73;;;26.30;99.90;;;;;;4861332;29;20666;-66
2023/07/01 06:58:36;;;;;;;14.80;13.70;;;26.30;99.90;;;;;;4857322;29;20237;-66
2023/07/01 07:01:03;;;;;;;17.15;16.27;;;26.50;99.90;;;;;;4858305;29;20320;-66
2023/07/01 07:03:28;;;;;;;15.68;14.77;;;26.20;99.90;;;;;;4861307;29;20245;-67
2023/07/01 07:05:55;;;;;;;14.88;14.13;;;26.00;99.90;;;;;;4861273;29;20193;-65
2023/07/01 07:08:21;;;;;;;10.75;10.02;;;26.50;99.90;;;;;;4860734;29;20276;-66
2023/07/01 07:10:47;;;;;;;7.15;6.75;;;26.90;99.90;;;;;;4861027;29;20269;-66
2023/07/01 07:13:13;;;;;;;6.55;6.07;;;27.10;99.90;;;;;;4859746;29;20184;-66
2023/07/01 07:15:40;;;;;;;5.60;5.13;;;27.40;99.90;;;;;;4853585;29;20189;-66
2023/07/01 07:18:10;;;;;;;5.53;5.07;;;27.30;99.90;;;;;;4860755;29;20222;-67
2023/07/01 07:20:37;;;;;;;5.70;5.30;;;27.30;99.90;;;;;;4860991;29;20705;-66
2023/07/01 07:23:05;;;;;;;5.65;5.15;;;27.40;99.90;;;;;;4860978;29;20204;-67
2023/07/01 07:25:32;;;;;;;4.80;4.32;;;27.60;99.90;;;;;;4860962;29;20287;-67
2023/07/01 07:27:58;;;;;;;4.88;4.53;;;27.50;99.90;;;;;;4857136;29;20565;-67
2023/07/01 07:30:24;;;;;;;8.20;7.70;;;27.60;99.90;;;;;;4860122;29;20189;-68
2023/07/01 07:32:49;;;;;;;17.38;16.52;;;27.60;99.90;;;;;;4860956;29;20536;-67
2023/07/01 07:35:15;;;;;;;8.13;7.55;;;27.50;99.20;;;;;;4860767;29;20193;-66
2023/07/01 07:37:42;;;;;;;23.85;22.25;;;27.60;99.90;;;;;;4860377;29;20612;-66
2023/07/01 07:40:08;;;;;;;18.35;17.27;;;27.40;99.10;;;;;;4854200;29;20666;-67
2023/07/01 07:42:35;;;;;;;29.95;28.08;;;27.40;97.90;;;;;;4860588;29;20213;-67
2023/07/01 07:45:03;;;;;;;25.23;23.75;;;27.10;98.20;;;;;;4865502;29;20201;-67
2023/07/01 07:47:29;;;;;;;30.85;29.08;;;27.40;98.30;;;;;;4842538;29;20209;-67
2023/07/01 07:49:55;;;;;;;35.67;33.72;;;27.20;97.30;;;;;;4855726;29;20192;-67
2023/07/01 07:52:21;;;;;;;48.28;45.92;;;27.40;96.70;;;;;;4859905;29;20200;-67
2023/07/01 07:54:47;;;;;;;61.20;58.08;;;27.30;94.30;;;;;;4858710;29;20197;-68
2023/07/01 07:57:13;;;;;;;43.95;41.53;;;27.10;93.50;;;;;;4859777;29;20197;-69
2023/07/01 07:59:43;;;;;;;45.35;43.08;;;27.10;94.30;;;;;;4860464;29;20658;-67
2023/07/01 08:02:09;;;;;;;47.90;45.08;;;27.10;93.70;;;;;;4843269;29;20701;-67
2023/07/01 08:04:35;;;;;;;59.22;56.17;;;27.40;94.00;;;;;;4859697;29;20257;-66
2023/07/01 08:07:01;;;;;;;62.03;58.60;;;27.70;92.60;;;;;;4854684;29;20738;-65
2023/07/01 08:09:27;;;;;;;52.63;49.15;;;27.80;92.30;;;;;;4856463;29;20188;-65
2023/07/01 08:11:53;;;;;;;53.47;50.55;;;27.80;91.70;;;;;;4859704;29;20695;-66
2023/07/01 08:14:19;;;;;;;30.15;28.33;;;28.10;92.00;;;;;;4859112;29;20658;-67
2023/07/01 08:16:45;;;;;;;8.93;8.40;;;28.20;89.50;;;;;;4840508;29;20210;-67
2023/07/01 08:19:11;;;;;;;14.32;13.40;;;28.20;86.70;;;;;;4847680;29;20284;-66
2023/07/01 08:21:37;;;;;;;14.70;13.70;;;28.50;89.30;;;;;;4852371;29;20209;-66
2023/07/01 08:24:12;;;;;;;8.85;8.20;;;28.80;88.00;;;;;;4847403;29;20655;-65
2023/07/01 08:26:38;;;;;;;13.57;12.43;;;28.60;85.10;;;;;;4859631;29;20228;-66
2023/07/01 08:29:06;;;;;;;10.57;9.70;;;27.90;85.30;;;;;;4859097;29;20189;-65
2023/07/01 08:31:33;;;;;;;25.33;23.73;;;27.60;85.90;;;;;;4859171;29;20255;-66
2023/07/01 08:33:58;;;;;;;19.48;18.42;;;27.60;87.80;;;;;;4859737;29;20192;-66
2023/07/01 08:36:26;;;;;;;14.52;13.70;;;27.80;86.40;;;;;;4851463;29;20193;-66
2023/07/01 08:38:52;;;;;;;11.43;10.82;;;27.90;85.20;;;;;;4859023;29;20200;-65
2023/07/01 08:41:18;;;;;;;12.32;11.68;;;28.00;85.60;;;;;;4859354;29;20320;-66
2023/07/01 08:43:47;;;;;;;23.50;22.30;;;28.10;84.90;;;;;;4859457;29;20577;-66
2023/07/01 08:46:15;;;;;;;7.53;7.15;;;28.30;83.80;;;;;;4858771;29;20697;-66
2023/07/01 08:48:43;;;;;;;6.95;6.25;;;28.70;82.10;;;;;;4855487;29;20569;-66
2023/07/01 08:51:25;;;;;;;6.93;6.38;;;28.80;82.80;;;;;;4861010;29;20215;-66
2023/07/01 08:53:52;;;;;;;6.88;6.47;;;28.80;82.20;;;;;;4865099;29;20284;-66
2023/07/01 08:56:21;;;;;;;17.27;16.33;;;28.30;81.50;;;;;;4858818;29;20213;-65
2023/07/01 08:58:49;;;;;;;10.35;9.75;;;28.20;84.00;;;;;;4858635;29;20197;-66
2023/07/01 09:01:16;;;;;;;10.15;9.27;;;28.40;81.50;;;;;;4858440;29;20228;-66
2023/07/01 09:03:42;;;;;;;10.07;9.18;;;28.80;81.20;;;;;;4853130;29;20391;-65
2023/07/01 09:06:08;;;;;;;11.65;10.95;;;28.80;79.70;;;;;;4858231;29;20231;-66
2023/07/01 09:08:40;;;;;;;11.85;11.02;;;28.40;82.00;;;;;;4857786;29;20189;-65
2023/07/01 09:11:18;;;;;;;16.77;15.65;;;28.10;80.60;;;;;;4858805;29;20621;-66
2023/07/01 09:13:44;;;;;;;18.10;16.63;;;27.90;79.00;;;;;;4880599;23;20201;-68
2023/07/01 09:16:10;;;;;;;15.20;14.30;;;27.90;80.80;;;;;;4864665;29;20221;-69
2023/07/01 09:18:36;;;;;;;10.77;10.00;;;27.90;79.80;;;;;;4876498;29;20192;-68
2023/07/01 09:21:15;;;;;;;24.42;22.92;;;27.70;78.80;;;;;;4877354;29;20679;-68
2023/07/01 09:23:41;;;;;;;11.68;10.77;;;28.10;81.10;;;;;;4853547;29;20235;-68
2023/07/01 09:26:07;;;;;;;16.50;15.52;;;28.40;78.30;;;;;;4850301;29;20236;-69
2023/07/01 09:28:34;;;;;;;13.93;13.05;;;28.60;79.00;;;;;;4844961;29;20743;-71
2023/07/01 09:31:04;;;;;;;12.25;10.40;;;29.10;78.20;;;;;;4841678;29;20185;-73
2023/07/01 09:33:31;;;;;;;28.70;7.47;;;29.50;75.90;;;;;;4851758;29;20244;-70
2023/07/01 09:36:03;;;;;;;8.02;5.07;;;29.50;76.60;;;;;;4858661;29;20265;-69
2023/07/01 09:38:33;;;;;;;5.65;5.30;;;29.30;76.40;;;;;;4858000;29;20189;-69
2023/07/01 09:41:26;;;;;;;6.00;4.20;;;29.40;76.00;;;;;;4864392;29;20216;-69
2023/07/01 09:43:54;;;;;;;5.97;4.85;;;29.20;74.00;;;;;;4854056;29;20236;-68
2023/07/01 09:46:20;;;;;;;5.22;4.38;;;28.50;74.90;;;;;;4858357;29;20220;-69
2023/07/01 09:48:56;;;;;;;6.30;5.70;;;27.70;75.60;;;;;;4858095;29;20256;-69
2023/07/01 09:51:26;;;;;;;11.18;10.38;;;27.50;77.10;;;;;;4858623;29;20200;-70
2023/07/01 09:53:52;;;;;;;17.60;16.50;;;26.90;76.70;;;;;;4862773;29;20201;-69
2023/07/01 09:56:19;;;;;;;18.85;17.67;;;26.90;78.40;;;;;;4864357;29;20189;-70
2023/07/01 09:58:47;;;;;;;13.20;12.40;;;27.20;77.80;;;;;;4864496;29;20653;-70
2023/07/01 10:01:14;;;;;;;10.32;9.73;;;27.20;76.20;;;;;;4864283;29;20189;-70
2023/07/01 10:03:41;;;;;;;21.08;19.92;;;27.10;76.60;;;;;;4870245;29;20185;-70
2023/07/01 10:06:08;;;;;;;34.63;32.78;;;27.10;77.30;;;;;;4863988;29;20616;-70
2023/07/01 10:08:34;;;;;;;7.70;7.20;;;27.20;77.00;;;;;;4863771;29;20685;-72
2023/07/01 10:11:14;;;;;;;7.57;6.90;;;27.90;72.60;;;;;;4864630;29;20191;-71
2023/07/01 10:14:03;;;;;;;6.57;4.28;;;28.70;72.10;;;;;;4863352;29;20192;-71
2023/07/01 10:16:29;;;;;;;5.45;5.10;;;29.20;68.10;;;;;;4864620;29;20204;-73
2023/07/01 10:18:54;;;;;;;4.88;4.45;;;29.30;68.70;;;;;;4846555;29;20215;-70
2023/07/01 10:21:23;;;;;;;7.75;6.90;;;29.90;70.20;;;;;;4871543;29;20825;-71
2023/07/01 10:23:49;;;;;;;12.85;11.80;;;30.20;67.60;;;;;;4864136;29;20181;-70
2023/07/01 10:26:36;;;;;;;11.18;10.23;;;30.10;65.20;;;;;;4864459;29;20216;-70
2023/07/01 10:29:27;;;;;;;17.77;7.55;;;29.40;63.90;;;;;;4853169;29;20280;-70
2023/07/01 10:32:11;;;;;;;11.40;10.80;;;29.20;67.20;;;;;;4864774;29;20701;-71
2023/07/01 10:34:52;;;;;;;10.38;9.77;;;29.20;64.90;;;;;;4847937;29;20215;-70
2023/07/01 10:37:22;;;;;;;7.53;7.10;;;28.90;64.30;;;;;;4863779;29;20207;-71
2023/07/01 10:39:49;;;;;;;10.77;10.18;;;28.80;63.60;;;;;;4864275;29;20197;-71
2023/07/01 10:42:33;;;;;;;8.90;8.20;;;28.20;62.70;;;;;;4847612;29;20669;-71
2023/07/01 10:45:11;;;;;;;7.97;7.53;;;28.10;63.60;;;;;;4847633;29;20716;-72
2023/07/01 10:48:03;;;;;;;6.85;6.35;;;28.50;66.90;;;;;;4863642;29;20224;-70
2023/07/01 10:50:29;;;;;;;7.50;7.00;;;28.80;64.10;;;;;;4847582;29;20571;-69
2023/07/01 10:52:58;;;;;;;6.65;6.25;;;29.40;64.60;;;;;;4845253;29;20185;-70
2023/07/01 10:55:49;;;;;;;13.40;12.40;;;29.50;64.00;;;;;;4864049;29;20213;-68
2023/07/01 10:58:23;;;;;;;8.50;7.80;;;29.30;59.20;;;;;;4863699;29;20665;-68
2023/07/01 11:00:51;;;;;;;10.75;9.75;;;29.10;59.10;;;;;;4847630;29;20203;-68
2023/07/01 11:03:35;;;;;;;10.85;9.93;;;29.10;58.80;;;;;;4863949;29;20195;-68
2023/07/01 11:06:08;;;;;;;12.15;11.15;;;28.90;59.00;;;;;;4859707;29;20212;-70
2023/07/01 11:08:43;;;;;;;8.85;8.25;;;29.00;60.70;;;;;;4860874;29;20221;-68
2023/07/01 11:11:09;;;;;;;6.80;6.40;;;29.20;57.50;;;;;;4861216;29;20200;-69
2023/07/01 11:13:35;;;;;;;7.05;4.82;;;29.70;56.00;;;;;;4861067;29;20185;-70
2023/07/01 11:16:09;;;;;;;4.43;3.95;;;29.60;54.60;;;;;;4860816;29;20236;-69
2023/07/01 11:18:42;;;;;;;5.18;4.63;;;29.90;55.00;;;;;;4860393;29;20194;-69
2023/07/01 11:21:14;;;;;;;10.20;5.22;;;30.60;55.60;;;;;;4868978;29;20231;-72
2023/07/01 11:24:07;;;;;;;4.70;4.30;;;30.40;53.80;;;;;;4844638;29;20402;-70
2023/07/01 11:26:35;;;;;;;4.22;3.92;;;29.50;54.30;;;;;;4844543;29;20220;-70
2023/07/01 11:29:02;;;;;;;4.50;4.15;;;28.90;54.80;;;;;;4860608;29;20670;-72
2023/07/01 11:31:33;;;;;;;15.30;14.50;;;28.30;55.30;;;;;;4844551;29;20216;-73
2023/07/01 11:34:01;;;;;;;8.73;8.23;;;28.60;57.30;;;;;;4860666;29;20217;-72
2023/07/01 11:36:34;;;;;;;4.85;4.18;;;29.70;55.70;;;;;;4861127;29;20189;-72
2023/07/01 11:39:07;;;;;;;4.22;3.78;;;30.50;54.90;;;;;;4860430;29;20197;-72
2023/07/01 11:41:35;;;;;;;5.80;5.47;;;31.30;54.50;;;;;;4861321;29;20193;-76
2023/07/01 11:44:01;;;;;;;6.50;3.35;;;32.00;53.70;;;;;;4851845;29;20244;-74
2023/07/01 11:46:33;;;;;;;3.67;3.38;;;32.70;52.60;;;;;;4860547;29;20220;-70
2023/07/01 11:49:17;;;;;;;6.43;6.03;;;33.20;52.30;;;;;;4861122;29;20283;-76
2023/07/01 11:51:51;;;;;;;10.70;9.65;;;34.00;51.30;;;;;;4860844;29;20299;-77
2023/07/01 11:54:25;;;;;;;8.90;8.40;;;34.00;49.00;;;;;;4844032;29;20216;-76
2023/07/01 11:57:09;;;;;;;15.75;14.57;;;33.10;48.60;;;;;;4843813;29;20259;-77
2023/07/01 11:59:37;;;;;;;19.00;17.60;;;33.00;50.30;;;;;;4842588;29;20277;-76
2023/07/01 12:02:03;;;;;;;18.17;16.98;;;33.10;48.10;;;;;;4884988;29;20189;-78
2023/07/01 12:04:29;;;;;;;13.05;12.15;;;32.10;47.90;;;;;;4861615;29;20296;-75
2023/07/01 12:07:11;;;;;;;8.10;4.45;;;31.60;50.70;;;;;;4860077;29;20870;-76
2023/07/01 12:09:40;;;;;;;7.03;6.45;;;31.80;51.80;;;;;;4860226;29;20200;-76
2023/07/01 12:12:06;;;;;;;6.88;6.38;;;30.80;50.90;;;;;;4844102;29;20654;-80
2023/07/01 12:14:32;;;;;;;7.22;5.07;;;29.90;52.40;;;;;;4861721;29;20224;-77
2023/07/01 12:16:58;;;;;;;5.13;4.70;;;29.60;53.40;;;;;;4848259;29;20332;-79
2023/07/01 12:19:25;;;;;;;5.72;5.10;;;29.50;53.40;;;;;;4846469;29;20627;-76
2023/07/01 12:21:53;;;;;;;6.70;5.90;;;29.70;54.30;;;;;;4846650;29;20192;-80
2023/07/01 12:24:23;;;;;;;5.30;4.72;;;29.70;55.50;;;;;;4845579;29;20288;-79
2023/07/01 12:26:51;;;;;;;4.75;4.45;;;29.70;55.30;;;;;;4861395;29;20224;-75
2023/07/01 12:29:17;;;;;;;5.07;4.68;;;29.70;55.40;;;;;;4861699;29;20196;-80
2023/07/01 12:31:44;;;;;;;6.88;4.45;;;29.80;54.80;;;;;;4859712;29;20199;-76
2023/07/01 12:34:10;;;;;;;5.60;4.88;;;29.80;54.30;;;;;;4843142;29;20217;-75
2023/07/01 12:36:36;;;;;;;5.25;4.75;;;29.70;54.50;;;;;;4860707;29;20185;-76
2023/07/01 12:39:07;;;;;;;6.28;5.68;;;29.70;54.40;;;;;;4859212;29;20193;-76
2023/07/01 12:41:36;;;;;;;5.18;4.88;;;29.70;55.10;;;;;;4859957;29;20768;-76
2023/07/01 12:44:08;;;;;;;6.32;5.18;;;29.70;54.70;;;;;;4859550;29;20270;-76
2023/07/01 12:46:34;;;;;;;6.38;5.78;;;29.80;54.80;;;;;;4842931;29;20227;-76
2023/07/01 12:49:00;;;;;;;6.88;6.35;;;29.50;56.00;;;;;;4859109;29;20257;-76
2023/07/01 12:51:27;;;;;;;13.40;12.68;;;29.20;55.80;;;;;;4859141;29;20318;-76
2023/07/01 12:53:55;;;;;;;24.92;23.63;;;28.90;56.20;;;;;;4859746;29;20192;-77
2023/07/01 12:56:22;;;;;;;19.25;18.15;;;28.50;57.10;;;;;;4866969;29;20215;-76
2023/07/01 12:58:47;;;;;;;16.20;15.18;;;28.70;57.20;;;;;;4858835;29;20200;-77
2023/07/01 13:01:13;;;;;;;18.02;16.83;;;28.90;57.90;;;;;;4859191;29;20666;-77
2023/07/01 13:03:42;;;;;;;14.57;13.35;;;28.50;58.40;;;;;;4859221;29;20325;-75
2023/07/01 13:06:29;;;;;;;12.07;10.95;;;28.40;60.20;;;;;;4859097;29;20201;-77
2023/07/01 13:09:03;;;;;;;11.77;9.45;;;27.80;59.70;;;;;;4843522;29;20713;-77
2023/07/01 13:11:33;;;;;;;7.38;6.78;;;27.10;60.60;;;;;;4850334;29;20201;-79
2023/07/01 13:14:01;;;;;;;5.68;5.10;;;26.80;62.40;;;;;;4865554;29;20213;-78
2023/07/01 13:16:31;;;;;;;7.38;6.78;;;26.80;62.90;;;;;;4853933;29;20212;-79
2023/07/01 13:19:03;;;;;;;7.68;7.13;;;26.60;63.60;;;;;;4854686;29;20205;-78
2023/07/01 13:21:29;;;;;;;8.68;7.97;;;26.20;64.30;;;;;;4866912;29;20705;-76
2023/07/01 13:23:55;;;;;;;9.15;8.43;;;25.90;65.30;;;;;;4858952;29;20288;-74
2023/07/01 13:26:29;;;;;;;10.32;9.63;;;25.70;65.80;;;;;;4858710;29;20308;-74
2023/07/01 13:28:57;;;;;;;8.23;7.78;;;25.90;66.10;;;;;;4857791;29;20196;-74
2023/07/01 13:31:23;;;;;;;8.90;8.20;;;26.00;66.10;;;;;;4842364;29;20197;-74
2023/07/01 13:33:54;;;;;;;9.18;8.57;;;26.10;65.40;;;;;;4859058;29;20307;-74
2023/07/01 13:36:20;;;;;;;10.05;9.07;;;26.00;65.60;;;;;;4856809;29;20755;-75
2023/07/01 13:38:47;;;;;;;13.40;12.27;;;26.10;66.10;;;;;;4858285;29;20197;-74
2023/07/01 13:41:21;;;;;;;9.20;8.40;;;26.00;65.30;;;;;;4858764;29;20197;-75
2023/07/01 13:43:47;;;;;;;14.57;13.27;;;25.70;65.80;;;;;;4858731;29;20283;-75
2023/07/01 13:46:13;;;;;;;24.23;22.70;;;25.60;66.70;;;;;;4858480;29;20353;-75
2023/07/01 13:48:42;;;;;;;19.88;18.75;;;25.60;67.70;;;;;;4858065;29;20652;-75
2023/07/01 13:51:08;;;;;;;22.35;21.15;;;25.70;67.20;;;;;;4858729;29;20662;-75
2023/07/01 13:53:34;;;;;;;25.70;24.20;;;25.70;68.20;;;;;;4858962;29;20189;-75
2023/07/01 13:56:01;;;;;;;19.38;18.48;;;26.00;67.40;;;;;;4858648;29;20295;-75
2023/07/01 13:58:29;;;;;;;11.10;10.43;;;26.20;67.30;;;;;;4845353;29;20200;-75
2023/07/01 14:00:55;;;;;;;5.95;5.53;;;26.80;66.60;;;;;;4862414;29;20201;-75
2023/07/01 14:03:21;;;;;;;6.15;5.70;;;27.30;65.90;;;;;;4841999;29;20208;-75
2023/07/01 14:05:48;;;;;;;6.30;5.22;;;27.30;64.90;;;;;;4856675;29;20209;-77
2023/07/01 14:08:14;;;;;;;6.70;6.38;;;27.20;65.20;;;;;;4856295;29;20209;-78
2023/07/01 14:10:41;;;;;;;5.10;4.90;;;26.80;65.80;;;;;;4841642;29;20208;-78
2023/07/01 14:13:11;;;;;;;4.90;4.60;;;26.50;67.70;;;;;;4841461;29;20197;-77
2023/07/01 14:15:43;;;;;;;5.38;5.07;;;26.50;67.90;;;;;;4857771;29;20258;-77
2023/07/01 14:18:17;;;;;;;5.53;5.32;;;26.70;67.80;;;;;;4857334;29;20189;-77
2023/07/01 14:20:54;;;;;;;5.80;5.40;;;27.10;66.90;;;;;;4858197;29;20291;-78
2023/07/01 14:23:22;;;;;;;5.45;5.15;;;27.60;66.40;;;;;;4858765;29;20224;-78
2023/07/01 14:25:50;;;;;;;4.97;4.57;;;27.90;65.40;;;;;;4841581;29;20216;-78
2023/07/01 14:28:17;;;;;;;6.20;5.90;;;27.70;65.80;;;;;;4857465;29;20269;-77
2023/07/01 14:30:46;;;;;;;6.30;5.90;;;27.40;67.30;;;;;;4857793;29;20192;-78
2023/07/01 14:33:13;;;;;;;6.38;6.07;;;27.30;67.90;;;;;;4857806;29;20626;-78
2023/07/01 14:35:39;;;;;;;5.97;5.70;;;27.40;69.00;;;;;;4841684;29;20589;-77
2023/07/01 14:38:05;;;;;;;7.43;7.05;;;27.50;69.40;;;;;;4857409;29;20204;-77
2023/07/01 14:40:35;;;;;;;6.90;6.53;;;27.30;70.80;;;;;;4861124;29;20197;-77
2023/07/01 14:43:09;;;;;;;6.68;6.35;;;27.30;71.20;;;;;;4860950;29;20244;-77
2023/07/01 14:45:36;;;;;;;11.68;11.00;;;27.10;71.40;;;;;;4865758;29;20220;-77
2023/07/01 14:48:02;;;;;;;17.98;17.08;;;26.60;72.20;;;;;;4863917;29;20636;-76
2023/07/01 14:50:28;;;;;;;18.17;17.30;;;26.30;73.30;;;;;;4861400;29;20193;-78
2023/07/01 14:52:54;;;;;;;5.20;4.90;;;25.90;73.90;;;;;;4844769;29;20193;-77
2023/07/01 14:55:20;;;;;;;4.57;4.28;;;25.80;75.20;;;;;;4860771;29;20220;-77
2023/07/01 14:57:46;;;;;;;4.22;4.03;;;25.70;75.20;;;;;;4860510;29;20189;-77
2023/07/01 15:00:12;;;;;;;5.53;5.22;;;25.80;75.40;;;;;;4861218;29;20209;-77
2023/07/01 15:02:39;;;;;;;7.35;6.63;;;25.70;75.50;;;;;;4860996;29;20707;-77
2023/07/01 15:05:05;;;;;;;8.80;8.25;;;25.40;75.70;;;;;;4844363;29;20221;-77
2023/07/01 15:07:33;;;;;;;7.93;7.63;;;25.20;77.30;;;;;;4860837;29;20312;-77
2023/07/01 15:09:59;;;;;;;13.77;12.63;;;25.10;77.70;;;;;;4873489;29;20245;-79
2023/07/01 15:12:25;;;;;;;15.00;14.10;;;25.10;79.10;;;;;;4863375;29;20871;-77
2023/07/01 15:14:51;;;;;;;15.60;14.52;;;25.20;78.30;;;;;;4887660;23;20240;-69
2023/07/01 15:17:16;;;;;;;12.27;11.38;;;25.20;78.00;;;;;;4878932;29;20188;-70
2023/07/01 15:19:42;;;;;;;13.05;12.15;;;25.30;77.90;;;;;;4879613;29;20200;-72
2023/07/01 15:22:08;;;;;;;19.02;18.10;;;25.20;78.00;;;;;;4879590;29;20188;-70
2023/07/01 15:24:33;;;;;;;19.80;18.70;;;25.20;79.20;;;;;;4878740;29;20219;-72
2023/07/01 15:27:00;;;;;;;17.13;15.98;;;25.20;80.30;;;;;;4894678;29;20231;-70
2023/07/01 15:29:26;;;;;;;17.45;16.50;;;25.30;78.80;;;;;;4897045;29;20215;-70
2023/07/01 15:31:52;;;;;;;16.52;15.65;;;25.30;79.30;;;;;;4898420;29;20668;-70
2023/07/01 15:34:18;;;;;;;21.95;20.95;;;25.30;79.10;;;;;;4898360;29;20227;-71
2023/07/01 15:36:45;;;;;;;21.67;20.52;;;25.30;79.90;;;;;;4892548;29;20195;-70
2023/07/01 15:39:11;;;;;;;25.77;24.48;;;25.10;79.30;;;;;;4889596;29;20192;-70